Time,TemperatureF,DewpointF,PressureIn,WindDirection,WindDirectionDegrees,WindSpeedMPH,WindSpeedGustMPH,Humidity,HourlyPrecipIn,Conditions,Clouds,dailyrainin,SolarRadiationWatts/m^2,SoftwareType,DateUTC
2013-02-22 00:01:00,21.0,16.0,-100.00,NE,44,7.0,11.0,80,0.00,,,0.00,0.000000,,2013-02-22 06:01:00,
2013-02-22 00:32:00,21.0,16.0,-100.00,NE,49,8.0,12.0,80,0.00,,,0.00,0.000000,,2013-02-22 06:32:00,
2013-02-22 00:42:00,21.0,16.0,-100.00,NE,49,8.0,12.0,80,0.00,,,0.00,0.000000,,2013-02-22 06:42:00,
2013-02-22 00:52:00,21.0,16.0,-100.00,NE,49,8.0,12.0,80,0.00,,,0.00,0.000000,,2013-02-22 06:52:00,
2013-02-22 01:01:00,21.0,16.0,-100.00,NE,49,8.0,12.0,80,0.00,,,0.00,0.000000,,2013-02-22 07:01:00,
2013-02-22 01:32:00,21.0,16.0,-100.00,NE,46,8.0,12.0,80,0.00,,,0.00,0.000000,,2013-02-22 07:32:00,
2013-02-22 01:42:00,21.0,16.0,-100.00,NE,46,8.0,12.0,80,0.00,,,0.00,0.000000,,2013-02-22 07:42:00,
2013-02-22 01:52:00,21.0,16.0,-100.00,NE,46,8.0,12.0,80,0.00,,,0.00,0.000000,,2013-02-22 07:52:00,
2013-02-22 02:01:00,21.0,16.0,-100.00,NE,46,8.0,12.0,80,0.00,,,0.00,0.000000,,2013-02-22 08:01:00,
2013-02-22 02:32:00,20.0,14.0,-100.00,NE,44,9.0,14.0,78,0.00,,,0.00,0.000000,,2013-02-22 08:32:00,
2013-02-22 02:42:00,20.0,14.0,-100.00,NE,44,9.0,14.0,78,0.00,,,0.00,0.000000,,2013-02-22 08:42:00,
2013-02-22 02:52:00,20.0,14.0,-100.00,NE,44,9.0,14.0,78,0.00,,,0.00,0.000000,,2013-02-22 08:52:00,
2013-02-22 03:03:00,20.0,14.0,-100.00,NE,44,9.0,14.0,78,0.00,,,0.00,0.000000,,2013-02-22 09:03:00,
2013-02-22 03:32:00,20.0,15.0,-100.00,NE,48,9.0,17.0,80,0.00,,,0.00,0.000000,,2013-02-22 09:32:00,
2013-02-22 03:42:00,20.0,15.0,-100.00,NE,48,9.0,17.0,80,0.00,,,0.00,0.000000,,2013-02-22 09:42:00,
2013-02-22 03:52:00,20.0,15.0,-100.00,NE,48,9.0,17.0,80,0.00,,,0.00,0.000000,,2013-02-22 09:52:00,
2013-02-22 04:01:00,20.0,15.0,-100.00,NE,48,9.0,17.0,80,0.00,,,0.00,0.000000,,2013-02-22 10:01:00,
2013-02-22 04:32:00,20.0,16.0,-100.00,NE,40,8.0,16.0,83,0.00,,,0.00,0.000000,,2013-02-22 10:32:00,
2013-02-22 04:42:00,20.0,16.0,-100.00,NE,40,8.0,16.0,83,0.00,,,0.00,0.000000,,2013-02-22 10:42:00,
2013-02-22 04:52:00,20.0,16.0,-100.00,NE,40,8.0,16.0,83,0.00,,,0.00,0.000000,,2013-02-22 10:52:00,
2013-02-22 05:01:00,20.0,16.0,-100.00,NE,40,8.0,16.0,83,0.00,,,0.00,0.000000,,2013-02-22 11:01:00,
2013-02-22 05:32:00,19.0,16.0,-100.00,NNE,29,7.0,14.0,89,0.01,,,0.01,0.000000,,2013-02-22 11:32:00,
2013-02-22 05:42:00,19.0,16.0,-100.00,NNE,29,7.0,14.0,89,0.01,,,0.01,0.000000,,2013-02-22 11:42:00,
2013-02-22 05:52:00,19.0,16.0,-100.00,NNE,29,7.0,14.0,89,0.01,,,0.01,0.000000,,2013-02-22 11:52:00,
2013-02-22 06:02:00,19.0,16.0,-100.00,NNE,29,7.0,14.0,89,0.01,,,0.01,0.000000,,2013-02-22 12:02:00,
2013-02-22 06:32:00,20.0,18.0,-100.00,NE,37,7.0,12.0,90,0.04,,,0.05,0.000000,,2013-02-22 12:32:00,
2013-02-22 06:42:00,20.0,18.0,-100.00,NE,37,7.0,12.0,90,0.04,,,0.05,0.000000,,2013-02-22 12:42:00,
2013-02-22 06:52:00,20.0,18.0,-100.00,NE,37,7.0,12.0,90,0.04,,,0.05,0.000000,,2013-02-22 12:52:00,
2013-02-22 07:02:00,20.0,18.0,-100.00,NE,37,7.0,12.0,90,0.04,,,0.05,0.000000,,2013-02-22 13:02:00,
2013-02-22 07:32:00,20.0,18.0,-100.00,NNE,32,5.0,9.0,90,0.03,,,-99.99,0.000000,,2013-02-22 13:32:00,
2013-02-22 07:42:00,20.0,18.0,-100.00,NNE,32,5.0,9.0,90,0.03,,,-99.99,0.000000,,2013-02-22 13:42:00,
2013-02-22 07:52:00,20.0,18.0,-100.00,NNE,32,5.0,9.0,90,0.03,,,-99.99,0.000000,,2013-02-22 13:52:00,
2013-02-22 08:01:00,20.0,18.0,-100.00,NNE,32,5.0,9.0,90,0.03,,,-99.99,0.000000,,2013-02-22 14:01:00,
2013-02-22 08:32:00,21.0,19.0,-100.00,NNE,32,5.0,10.0,90,0.02,,,0.10,17.000000,,2013-02-22 14:32:00,
2013-02-22 08:42:00,21.0,19.0,-100.00,NNE,32,5.0,10.0,90,0.02,,,0.10,17.000000,,2013-02-22 14:42:00,
2013-02-22 08:53:00,21.0,19.0,-100.00,NNE,32,5.0,10.0,90,0.02,,,0.10,17.000000,,2013-02-22 14:53:00,
2013-02-22 09:01:00,21.0,19.0,-100.00,NNE,32,5.0,10.0,90,0.02,,,0.10,17.000000,,2013-02-22 15:01:00,
2013-02-22 09:32:00,23.0,20.0,-100.00,NE,41,7.0,12.0,87,0.01,,,0.11,96.000000,,2013-02-22 15:32:00,
2013-02-22 09:42:00,23.0,20.0,-100.00,NE,41,7.0,12.0,87,0.01,,,0.11,96.000000,,2013-02-22 15:42:00,
2013-02-22 09:52:00,23.0,20.0,-100.00,NE,41,7.0,12.0,87,0.01,,,0.11,96.000000,,2013-02-22 15:52:00,
2013-02-22 10:01:00,23.0,20.0,-100.00,NE,41,7.0,12.0,87,0.01,,,0.11,96.000000,,2013-02-22 16:01:00,
2013-02-22 10:32:00,23.0,19.0,-100.00,NE,44,8.0,14.0,85,0.00,,,0.11,121.000000,,2013-02-22 16:32:00,
2013-02-22 10:42:00,23.0,19.0,-100.00,NE,44,8.0,14.0,85,0.00,,,0.11,121.000000,,2013-02-22 16:42:00,
2013-02-22 10:52:00,23.0,19.0,-100.00,NE,44,8.0,14.0,85,0.00,,,0.11,121.000000,,2013-02-22 16:52:00,
2013-02-22 11:01:00,23.0,19.0,-100.00,NE,44,8.0,14.0,85,0.00,,,0.11,121.000000,,2013-02-22 17:01:00,
2013-02-22 11:32:00,25.0,21.0,-100.00,NE,42,7.0,11.0,84,0.01,,,0.12,169.000000,,2013-02-22 17:32:00,
2013-02-22 11:42:00,25.0,21.0,-100.00,NE,42,7.0,11.0,84,0.01,,,0.12,169.000000,,2013-02-22 17:42:00,
2013-02-22 11:52:00,25.0,21.0,-100.00,NE,42,7.0,11.0,84,0.01,,,0.12,169.000000,,2013-02-22 17:52:00,
2013-02-22 12:01:00,25.0,21.0,-100.00,NE,42,7.0,11.0,84,0.01,,,0.12,169.000000,,2013-02-22 18:01:00,
2013-02-22 12:32:00,27.0,23.0,-100.00,NE,48,6.0,11.0,83,0.01,,,-99.99,219.000000,,2013-02-22 18:32:00,
2013-02-22 12:42:00,27.0,23.0,-100.00,NE,48,6.0,11.0,83,0.01,,,-99.99,219.000000,,2013-02-22 18:42:00,
2013-02-22 12:52:00,27.0,23.0,-100.00,NE,48,6.0,11.0,83,0.01,,,-99.99,219.000000,,2013-02-22 18:52:00,
2013-02-22 13:01:00,27.0,23.0,-100.00,NE,48,6.0,11.0,83,0.01,,,-99.99,219.000000,,2013-02-22 19:01:00,
2013-02-22 13:31:00,28.0,23.0,-100.00,NE,34,6.0,11.0,82,0.00,,,0.13,239.000000,,2013-02-22 19:31:00,
2013-02-22 13:42:00,28.0,23.0,-100.00,NE,34,6.0,11.0,82,0.00,,,0.13,239.000000,,2013-02-22 19:42:00,
2013-02-22 13:52:00,28.0,23.0,-100.00,NE,34,6.0,11.0,82,0.00,,,0.13,239.000000,,2013-02-22 19:52:00,
2013-02-22 14:01:00,28.0,23.0,-100.00,NE,34,6.0,11.0,82,0.00,,,0.13,239.000000,,2013-02-22 20:01:00,
2013-02-22 14:32:00,29.0,24.0,-100.00,ENE,59,6.0,11.0,80,0.00,,,0.13,257.000000,,2013-02-22 20:32:00,
2013-02-22 14:42:00,29.0,24.0,-100.00,ENE,59,6.0,11.0,80,0.00,,,0.13,257.000000,,2013-02-22 20:42:00,
2013-02-22 14:52:00,29.0,24.0,-100.00,ENE,59,6.0,11.0,80,0.00,,,0.13,257.000000,,2013-02-22 20:52:00,
2013-02-22 15:01:00,29.0,24.0,-100.00,ENE,59,6.0,11.0,80,0.00,,,0.13,257.000000,,2013-02-22 21:01:00,
2013-02-22 15:32:00,28.0,22.0,-100.00,NE,55,7.0,12.0,77,0.00,,,0.13,258.000000,,2013-02-22 21:32:00,
2013-02-22 15:42:00,28.0,22.0,-100.00,NE,55,7.0,12.0,77,0.00,,,0.13,258.000000,,2013-02-22 21:42:00,
2013-02-22 15:52:00,28.0,22.0,-100.00,NE,55,7.0,12.0,77,0.00,,,0.13,258.000000,,2013-02-22 21:52:00,
2013-02-22 16:01:00,28.0,22.0,-100.00,NE,55,7.0,12.0,77,0.00,,,0.13,258.000000,,2013-02-22 22:01:00,
2013-02-22 16:32:00,28.0,21.0,-100.00,ENE,60,4.0,10.0,75,0.00,,,0.13,171.000000,,2013-02-22 22:32:00,
2013-02-22 16:42:00,28.0,21.0,-100.00,ENE,60,4.0,10.0,75,0.00,,,0.13,171.000000,,2013-02-22 22:42:00,
2013-02-22 16:52:00,28.0,21.0,-100.00,ENE,60,4.0,10.0,75,0.00,,,0.13,171.000000,,2013-02-22 22:52:00,
2013-02-22 17:01:00,28.0,21.0,-100.00,ENE,60,4.0,10.0,75,0.00,,,0.13,171.000000,,2013-02-22 23:01:00,
2013-02-22 17:32:00,28.0,22.0,-100.00,NNE,31,4.0,7.0,78,0.00,,,0.13,62.000000,,2013-02-22 23:32:00,
2013-02-22 17:42:00,28.0,22.0,-100.00,NNE,31,4.0,7.0,78,0.00,,,0.13,62.000000,,2013-02-22 23:42:00,
2013-02-22 17:52:00,28.0,22.0,-100.00,NNE,31,4.0,7.0,78,0.00,,,0.13,62.000000,,2013-02-22 23:52:00,
2013-02-22 18:01:00,28.0,22.0,-100.00,NNE,31,4.0,7.0,78,0.00,,,0.13,62.000000,,2013-02-23 00:01:00,
2013-02-22 18:32:00,26.0,22.0,-100.00,NNW,331,2.0,6.0,84,0.00,,,0.13,10.000000,,2013-02-23 00:32:00,
2013-02-22 18:42:00,26.0,22.0,-100.00,NNW,331,2.0,6.0,84,0.00,,,0.13,10.000000,,2013-02-23 00:42:00,
2013-02-22 18:52:00,26.0,22.0,-100.00,NNW,331,2.0,6.0,84,0.00,,,0.13,10.000000,,2013-02-23 00:52:00,
2013-02-22 19:01:00,26.0,22.0,-100.00,NNW,331,2.0,6.0,84,0.00,,,0.13,10.000000,,2013-02-23 01:01:00,
2013-02-22 19:32:00,25.0,22.0,-100.00,WNW,291,2.0,5.0,87,0.00,,,-99.99,0.000000,,2013-02-23 01:32:00,
2013-02-22 19:42:00,25.0,22.0,-100.00,WNW,291,2.0,5.0,87,0.00,,,-99.99,0.000000,,2013-02-23 01:42:00,
2013-02-22 19:52:00,25.0,22.0,-100.00,WNW,291,2.0,5.0,87,0.00,,,-99.99,0.000000,,2013-02-23 01:52:00,
2013-02-22 20:01:00,25.0,22.0,-100.00,WNW,291,2.0,5.0,87,0.00,,,-99.99,0.000000,,2013-02-23 02:01:00,
2013-02-22 20:32:00,24.0,21.0,-100.00,WNW,300,2.0,5.0,87,0.00,,,0.13,0.000000,,2013-02-23 02:32:00,
2013-02-22 20:42:00,24.0,21.0,-100.00,WNW,300,2.0,5.0,87,0.00,,,0.13,0.000000,,2013-02-23 02:42:00,
2013-02-22 20:52:00,24.0,21.0,-100.00,WNW,300,2.0,5.0,87,0.00,,,0.13,0.000000,,2013-02-23 02:52:00,
2013-02-22 21:01:00,24.0,21.0,-100.00,WNW,300,2.0,5.0,87,0.00,,,0.13,0.000000,,2013-02-23 03:01:00,
2013-02-22 21:32:00,20.0,18.0,-100.00,West,268,2.0,5.0,91,0.00,,,0.13,0.000000,,2013-02-23 03:32:00,
2013-02-22 21:42:00,20.0,18.0,-100.00,West,268,2.0,5.0,91,0.00,,,0.13,0.000000,,2013-02-23 03:42:00,
2013-02-22 21:52:00,20.0,18.0,-100.00,West,268,2.0,5.0,91,0.00,,,0.13,0.000000,,2013-02-23 03:52:00,
2013-02-22 22:01:00,20.0,18.0,-100.00,West,268,2.0,5.0,91,0.00,,,0.13,0.000000,,2013-02-23 04:01:00,
2013-02-22 22:32:00,22.0,20.0,-100.00,WSW,242,3.0,4.0,91,0.00,,,0.13,0.000000,,2013-02-23 04:32:00,
2013-02-22 22:42:00,22.0,20.0,-100.00,WSW,242,3.0,4.0,91,0.00,,,0.13,0.000000,,2013-02-23 04:42:00,
2013-02-22 22:52:00,22.0,20.0,-100.00,WSW,242,3.0,4.0,91,0.00,,,0.13,0.000000,,2013-02-23 04:52:00,
2013-02-22 23:03:00,22.0,20.0,-100.00,WSW,242,3.0,4.0,91,0.00,,,0.13,0.000000,,2013-02-23 05:03:00,
2013-02-22 23:33:00,22.0,19.0,-100.00,WSW,252,2.0,5.0,89,0.00,,,0.13,0.000000,,2013-02-23 05:33:00,
2013-02-22 23:42:00,22.0,19.0,-100.00,WSW,252,2.0,5.0,89,0.00,,,0.13,0.000000,,2013-02-23 05:42:00,
2013-02-22 23:52:00,22.0,19.0,-100.00,WSW,252,2.0,5.0,89,0.00,,,0.13,0.000000,,2013-02-23 05:52:00,